sensor_id;sensor_type;location;lat;lon;timestamp;P1;durP1;ratioP1;P2;durP2;ratioP2
80322;SDS011;69636;52.372;13.610;2023-07-16T00:00:31;7.78;;;6.97;;
80322;SDS011;69636;52.372;13.610;2023-07-16T00:02:58;8.30;;;7.38;;
80322;SDS011;69636;52.372;13.610;2023-07-16T00:05:26;8.80;;;6.47;;
80322;SDS011;69636;52.372;13.610;2023-07-16T00:07:54;9.05;;;6.93;;
80322;SDS011;69636;52.372;13.610;2023-07-16T00:10:21;9.52;;;7.63;;
80322;SDS011;69636;52.372;13.610;2023-07-16T00:12:50;10.13;;;8.00;;
80322;SDS011;69636;52.372;13.610;2023-07-16T00:15:20;11.90;;;8.38;;
80322;SDS011;69636;52.372;13.610;2023-07-16T00:17:47;9.63;;;8.18;;
80322;SDS011;69636;52.372;13.610;2023-07-16T00:20:15;11.40;;;9.25;;
80322;SDS011;69636;52.372;13.610;2023-07-16T00:22:42;11.07;;;7.80;;
80322;SDS011;69636;52.372;13.610;2023-07-16T00:25:10;8.05;;;6.53;;
80322;SDS011;69636;52.372;13.610;2023-07-16T00:30:05;8.43;;;6.18;;
80322;SDS011;69636;52.372;13.610;2023-07-16T00:32:39;10.38;;;7.85;;
80322;SDS011;69636;52.372;13.610;2023-07-16T00:35:07;9.45;;;6.80;;
80322;SDS011;69636;52.372;13.610;2023-07-16T00:37:35;9.45;;;7.95;;
80322;SDS011;69636;52.372;13.610;2023-07-16T00:40:03;9.50;;;7.43;;
80322;SDS011;69636;52.372;13.610;2023-07-16T00:42:32;7.40;;;6.63;;
80322;SDS011;69636;52.372;13.610;2023-07-16T00:45:00;8.40;;;7.03;;
80322;SDS011;69636;52.372;13.610;2023-07-16T00:47:27;7.65;;;5.72;;
80322;SDS011;69636;52.372;13.610;2023-07-16T00:49:56;10.25;;;6.65;;
80322;SDS011;69636;52.372;13.610;2023-07-16T00:52:24;8.30;;;6.95;;
80322;SDS011;69636;52.372;13.610;2023-07-16T00:54:52;7.53;;;6.53;;
80322;SDS011;69636;52.372;13.610;2023-07-16T00:57:20;8.80;;;7.90;;
80322;SDS011;69636;52.372;13.610;2023-07-16T00:59:47;8.55;;;7.63;;
80322;SDS011;69636;52.372;13.610;2023-07-16T01:02:15;9.82;;;7.32;;
80322;SDS011;69636;52.372;13.610;2023-07-16T01:04:44;8.73;;;7.28;;
80322;SDS011;69636;52.372;13.610;2023-07-16T01:07:14;9.30;;;8.27;;
80322;SDS011;69636;52.372;13.610;2023-07-16T01:09:42;10.00;;;8.45;;
80322;SDS011;69636;52.372;13.610;2023-07-16T01:12:12;10.38;;;9.00;;
80322;SDS011;69636;52.372;13.610;2023-07-16T01:14:40;10.27;;;8.85;;
80322;SDS011;69636;52.372;13.610;2023-07-16T01:17:08;11.65;;;9.90;;
80322;SDS011;69636;52.372;13.610;2023-07-16T01:19:36;11.75;;;10.15;;
80322;SDS011;69636;52.372;13.610;2023-07-16T01:22:10;11.98;;;10.50;;
80322;SDS011;69636;52.372;13.610;2023-07-16T01:25:19;11.38;;;10.13;;
80322;SDS011;69636;52.372;13.610;2023-07-16T01:27:59;12.48;;;9.35;;
80322;SDS011;69636;52.372;13.610;2023-07-16T01:33:37;14.35;;;9.40;;
80322;SDS011;69636;52.372;13.610;2023-07-16T01:36:08;10.00;;;8.48;;
80322;SDS011;69636;52.372;13.610;2023-07-16T01:38:36;8.65;;;7.68;;
80322;SDS011;69636;52.372;13.610;2023-07-16T01:41:04;10.13;;;8.18;;
80322;SDS011;69636;52.372;13.610;2023-07-16T01:43:32;11.30;;;9.70;;
80322;SDS011;69636;52.372;13.610;2023-07-16T01:48:30;9.68;;;6.20;;
80322;SDS011;69636;52.372;13.610;2023-07-16T01:51:00;9.70;;;6.90;;
80322;SDS011;69636;52.372;13.610;2023-07-16T01:53:27;9.13;;;7.22;;
80322;SDS011;69636;52.372;13.610;2023-07-16T01:55:57;9.38;;;6.68;;
80322;SDS011;69636;52.372;13.610;2023-07-16T01:58:24;9.23;;;6.32;;
80322;SDS011;69636;52.372;13.610;2023-07-16T02:00:53;9.90;;;7.13;;
80322;SDS011;69636;52.372;13.610;2023-07-16T02:03:20;8.20;;;6.88;;
80322;SDS011;69636;52.372;13.610;2023-07-16T02:05:50;12.45;;;6.28;;
80322;SDS011;69636;52.372;13.610;2023-07-16T02:08:18;6.90;;;5.63;;
80322;SDS011;69636;52.372;13.610;2023-07-16T02:13:14;6.88;;;4.45;;
80322;SDS011;69636;52.372;13.610;2023-07-16T02:15:42;7.40;;;4.45;;
80322;SDS011;69636;52.372;13.610;2023-07-16T02:18:10;7.38;;;5.10;;
80322;SDS011;69636;52.372;13.610;2023-07-16T02:20:38;6.80;;;4.93;;
80322;SDS011;69636;52.372;13.610;2023-07-16T02:23:11;10.80;;;5.30;;
80322;SDS011;69636;52.372;13.610;2023-07-16T02:25:38;8.13;;;5.47;;
80322;SDS011;69636;52.372;13.610;2023-07-16T02:28:06;9.75;;;6.65;;
80322;SDS011;69636;52.372;13.610;2023-07-16T02:30:34;7.07;;;5.45;;
80322;SDS011;69636;52.372;13.610;2023-07-16T02:33:04;11.73;;;5.82;;
80322;SDS011;69636;52.372;13.610;2023-07-16T02:35:32;8.07;;;6.60;;
80322;SDS011;69636;52.372;13.610;2023-07-16T02:37:59;9.10;;;5.53;;
80322;SDS011;69636;52.372;13.610;2023-07-16T02:40:29;8.80;;;6.00;;
80322;SDS011;69636;52.372;13.610;2023-07-16T02:42:56;6.68;;;4.88;;
80322;SDS011;69636;52.372;13.610;2023-07-16T02:47:51;6.47;;;4.07;;
80322;SDS011;69636;52.372;13.610;2023-07-16T02:52:52;6.40;;;4.35;;
80322;SDS011;69636;52.372;13.610;2023-07-16T02:55:20;6.00;;;4.38;;
80322;SDS011;69636;52.372;13.610;2023-07-16T02:57:53;5.85;;;4.28;;
80322;SDS011;69636;52.372;13.610;2023-07-16T03:00:20;5.82;;;4.20;;
80322;SDS011;69636;52.372;13.610;2023-07-16T03:02:48;8.30;;;4.85;;
80322;SDS011;69636;52.372;13.610;2023-07-16T03:05:16;7.30;;;5.30;;
80322;SDS011;69636;52.372;13.610;2023-07-16T03:07:44;8.77;;;5.05;;
80322;SDS011;69636;52.372;13.610;2023-07-16T03:10:12;7.05;;;5.43;;
80322;SDS011;69636;52.372;13.610;2023-07-16T03:12:39;7.43;;;5.32;;
80322;SDS011;69636;52.372;13.610;2023-07-16T03:15:14;7.55;;;4.70;;
80322;SDS011;69636;52.372;13.610;2023-07-16T03:17:41;8.77;;;5.22;;
80322;SDS011;69636;52.372;13.610;2023-07-16T03:20:09;8.77;;;5.50;;
80322;SDS011;69636;52.372;13.610;2023-07-16T03:22:37;7.75;;;5.20;;
80322;SDS011;69636;52.372;13.610;2023-07-16T03:25:05;9.45;;;5.55;;
80322;SDS011;69636;52.372;13.610;2023-07-16T03:27:34;6.95;;;4.90;;
80322;SDS011;69636;52.372;13.610;2023-07-16T03:30:01;9.55;;;5.95;;
80322;SDS011;69636;52.372;13.610;2023-07-16T03:32:30;9.75;;;6.47;;
80322;SDS011;69636;52.372;13.610;2023-07-16T03:35:19;7.55;;;5.40;;
80322;SDS011;69636;52.372;13.610;2023-07-16T03:37:47;8.52;;;6.28;;
80322;SDS011;69636;52.372;13.610;2023-07-16T03:40:15;7.53;;;5.38;;
80322;SDS011;69636;52.372;13.610;2023-07-16T03:42:43;8.02;;;6.00;;
80322;SDS011;69636;52.372;13.610;2023-07-16T03:47:43;8.88;;;5.85;;
80322;SDS011;69636;52.372;13.610;2023-07-16T03:50:11;10.13;;;6.18;;
80322;SDS011;69636;52.372;13.610;2023-07-16T03:52:39;8.68;;;6.47;;
80322;SDS011;69636;52.372;13.610;2023-07-16T03:55:07;9.57;;;7.03;;
80322;SDS011;69636;52.372;13.610;2023-07-16T03:57:37;9.52;;;6.47;;
80322;SDS011;69636;52.372;13.610;2023-07-16T04:02:32;9.10;;;6.18;;
80322;SDS011;69636;52.372;13.610;2023-07-16T04:05:02;8.43;;;6.88;;
80322;SDS011;69636;52.372;13.610;2023-07-16T04:07:30;10.90;;;7.25;;
80322;SDS011;69636;52.372;13.610;2023-07-16T04:09:57;11.05;;;7.50;;
80322;SDS011;69636;52.372;13.610;2023-07-16T04:12:25;10.82;;;7.35;;
80322;SDS011;69636;52.372;13.610;2023-07-16T04:14:53;10.20;;;7.75;;
80322;SDS011;69636;52.372;13.610;2023-07-16T04:17:24;10.32;;;8.10;;
80322;SDS011;69636;52.372;13.610;2023-07-16T04:19:51;9.88;;;7.93;;
80322;SDS011;69636;52.372;13.610;2023-07-16T04:22:24;9.65;;;7.63;;
80322;SDS011;69636;52.372;13.610;2023-07-16T04:24:52;8.38;;;6.97;;
80322;SDS011;69636;52.372;13.610;2023-07-16T04:27:20;10.90;;;9.48;;
80322;SDS011;69636;52.372;13.610;2023-07-16T04:29:48;10.93;;;7.70;;
80322;SDS011;69636;52.372;13.610;2023-07-16T04:32:16;9.30;;;7.10;;
80322;SDS011;69636;52.372;13.610;2023-07-16T04:34:44;8.85;;;7.00;;
80322;SDS011;69636;52.372;13.610;2023-07-16T04:39:40;10.90;;;7.40;;
80322;SDS011;69636;52.372;13.610;2023-07-16T04:42:07;12.02;;;8.25;;
80322;SDS011;69636;52.372;13.610;2023-07-16T04:44:35;10.40;;;7.03;;
80322;SDS011;69636;52.372;13.610;2023-07-16T04:47:03;10.20;;;7.40;;
80322;SDS011;69636;52.372;13.610;2023-07-16T04:49:34;8.18;;;7.00;;
80322;SDS011;69636;52.372;13.610;2023-07-16T04:52:02;11.52;;;7.55;;
80322;SDS011;69636;52.372;13.610;2023-07-16T04:54:34;9.10;;;8.20;;
80322;SDS011;69636;52.372;13.610;2023-07-16T04:57:05;9.35;;;7.65;;
80322;SDS011;69636;52.372;13.610;2023-07-16T04:59:33;10.18;;;7.22;;
80322;SDS011;69636;52.372;13.610;2023-07-16T05:02:02;11.52;;;9.45;;
80322;SDS011;69636;52.372;13.610;2023-07-16T05:04:32;9.75;;;7.15;;
80322;SDS011;69636;52.372;13.610;2023-07-16T05:07:01;8.52;;;6.57;;
80322;SDS011;69636;52.372;13.610;2023-07-16T05:11:56;7.57;;;6.40;;
80322;SDS011;69636;52.372;13.610;2023-07-16T05:14:28;8.77;;;7.47;;
80322;SDS011;69636;52.372;13.610;2023-07-16T05:16:57;8.50;;;7.00;;
80322;SDS011;69636;52.372;13.610;2023-07-16T05:19:25;7.80;;;6.80;;
80322;SDS011;69636;52.372;13.610;2023-07-16T05:21:52;8.10;;;6.03;;
80322;SDS011;69636;52.372;13.610;2023-07-16T05:24:19;7.80;;;6.20;;
80322;SDS011;69636;52.372;13.610;2023-07-16T05:26:47;7.88;;;6.10;;
80322;SDS011;69636;52.372;13.610;2023-07-16T05:31:44;8.23;;;6.10;;
80322;SDS011;69636;52.372;13.610;2023-07-16T05:34:11;6.63;;;5.57;;
80322;SDS011;69636;52.372;13.610;2023-07-16T05:36:40;8.32;;;6.00;;
80322;SDS011;69636;52.372;13.610;2023-07-16T05:39:09;7.63;;;5.90;;
80322;SDS011;69636;52.372;13.610;2023-07-16T05:41:36;6.07;;;5.07;;
80322;SDS011;69636;52.372;13.610;2023-07-16T05:44:04;6.70;;;5.38;;
80322;SDS011;69636;52.372;13.610;2023-07-16T05:46:32;9.73;;;6.22;;
80322;SDS011;69636;52.372;13.610;2023-07-16T05:49:02;6.28;;;5.22;;
80322;SDS011;69636;52.372;13.610;2023-07-16T05:51:30;7.13;;;5.32;;
80322;SDS011;69636;52.372;13.610;2023-07-16T05:53:57;7.43;;;5.72;;
80322;SDS011;69636;52.372;13.610;2023-07-16T05:56:25;6.95;;;5.53;;
80322;SDS011;69636;52.372;13.610;2023-07-16T05:58:53;7.57;;;5.40;;
80322;SDS011;69636;52.372;13.610;2023-07-16T06:03:48;5.43;;;4.80;;
80322;SDS011;69636;52.372;13.610;2023-07-16T06:06:20;5.85;;;5.25;;
80322;SDS011;69636;52.372;13.610;2023-07-16T06:08:48;5.85;;;3.75;;
80322;SDS011;69636;52.372;13.610;2023-07-16T06:13:43;5.68;;;4.60;;
80322;SDS011;69636;52.372;13.610;2023-07-16T06:16:10;5.75;;;4.85;;
80322;SDS011;69636;52.372;13.610;2023-07-16T06:18:40;5.93;;;4.57;;
80322;SDS011;69636;52.372;13.610;2023-07-16T06:21:08;5.50;;;4.97;;
80322;SDS011;69636;52.372;13.610;2023-07-16T06:23:37;5.97;;;4.55;;
80322;SDS011;69636;52.372;13.610;2023-07-16T06:26:04;7.70;;;4.63;;
80322;SDS011;69636;52.372;13.610;2023-07-16T06:28:32;6.97;;;4.43;;
80322;SDS011;69636;52.372;13.610;2023-07-16T06:30:59;4.70;;;3.58;;
80322;SDS011;69636;52.372;13.610;2023-07-16T06:33:27;7.40;;;3.80;;
80322;SDS011;69636;52.372;13.610;2023-07-16T06:35:55;5.20;;;4.38;;
80322;SDS011;69636;52.372;13.610;2023-07-16T06:38:22;4.55;;;3.90;;
80322;SDS011;69636;52.372;13.610;2023-07-16T06:40:56;5.97;;;4.20;;
80322;SDS011;69636;52.372;13.610;2023-07-16T06:43:23;7.40;;;4.07;;
80322;SDS011;69636;52.372;13.610;2023-07-16T06:45:51;5.45;;;3.72;;
80322;SDS011;69636;52.372;13.610;2023-07-16T06:48:19;5.57;;;4.22;;
80322;SDS011;69636;52.372;13.610;2023-07-16T06:50:47;6.00;;;3.53;;
80322;SDS011;69636;52.372;13.610;2023-07-16T06:53:16;6.90;;;3.80;;
80322;SDS011;69636;52.372;13.610;2023-07-16T06:55:43;5.40;;;3.97;;
80322;SDS011;69636;52.372;13.610;2023-07-16T06:58:13;4.47;;;3.13;;
80322;SDS011;69636;52.372;13.610;2023-07-16T07:00:41;4.78;;;3.47;;
80322;SDS011;69636;52.372;13.610;2023-07-16T07:03:09;5.65;;;3.60;;
80322;SDS011;69636;52.372;13.610;2023-07-16T07:05:40;6.18;;;4.22;;
80322;SDS011;69636;52.372;13.610;2023-07-16T07:08:08;5.25;;;4.38;;
80322;SDS011;69636;52.372;13.610;2023-07-16T07:10:35;6.97;;;3.20;;
80322;SDS011;69636;52.372;13.610;2023-07-16T07:13:03;5.68;;;4.00;;
80322;SDS011;69636;52.372;13.610;2023-07-16T07:15:33;4.65;;;3.63;;
80322;SDS011;69636;52.372;13.610;2023-07-16T07:18:01;6.82;;;3.80;;
80322;SDS011;69636;52.372;13.610;2023-07-16T07:22:55;4.75;;;3.80;;
80322;SDS011;69636;52.372;13.610;2023-07-16T07:25:23;5.28;;;3.47;;
80322;SDS011;69636;52.372;13.610;2023-07-16T07:27:50;5.70;;;3.65;;
80322;SDS011;69636;52.372;13.610;2023-07-16T07:30:19;4.60;;;3.72;;
80322;SDS011;69636;52.372;13.610;2023-07-16T07:32:49;4.35;;;3.65;;
80322;SDS011;69636;52.372;13.610;2023-07-16T07:35:17;5.50;;;3.28;;
80322;SDS011;69636;52.372;13.610;2023-07-16T07:37:44;5.00;;;3.88;;
80322;SDS011;69636;52.372;13.610;2023-07-16T07:40:12;5.13;;;3.33;;
80322;SDS011;69636;52.372;13.610;2023-07-16T07:42:40;5.20;;;3.38;;
80322;SDS011;69636;52.372;13.610;2023-07-16T07:47:36;7.13;;;4.13;;
80322;SDS011;69636;52.372;13.610;2023-07-16T07:50:07;5.47;;;3.80;;
80322;SDS011;69636;52.372;13.610;2023-07-16T07:52:35;5.10;;;3.40;;
80322;SDS011;69636;52.372;13.610;2023-07-16T07:55:03;5.32;;;3.83;;
80322;SDS011;69636;52.372;13.610;2023-07-16T07:57:31;6.45;;;3.88;;
80322;SDS011;69636;52.372;13.610;2023-07-16T07:59:59;4.93;;;3.60;;
80322;SDS011;69636;52.372;13.610;2023-07-16T08:04:54;3.80;;;2.88;;
80322;SDS011;69636;52.372;13.610;2023-07-16T08:07:24;5.15;;;3.70;;
80322;SDS011;69636;52.372;13.610;2023-07-16T08:09:51;5.00;;;3.25;;
80322;SDS011;69636;52.372;13.610;2023-07-16T08:12:20;7.50;;;3.50;;
80322;SDS011;69636;52.372;13.610;2023-07-16T08:14:47;5.30;;;3.67;;
80322;SDS011;69636;52.372;13.610;2023-07-16T08:17:15;5.32;;;3.33;;
80322;SDS011;69636;52.372;13.610;2023-07-16T08:19:43;4.47;;;3.28;;
80322;SDS011;69636;52.372;13.610;2023-07-16T08:22:10;5.15;;;2.60;;
80322;SDS011;69636;52.372;13.610;2023-07-16T08:27:07;18.85;;;16.23;;
80322;SDS011;69636;52.372;13.610;2023-07-16T08:29:35;6.20;;;3.75;;
80322;SDS011;69636;52.372;13.610;2023-07-16T08:32:03;4.55;;;3.10;;
80322;SDS011;69636;52.372;13.610;2023-07-16T08:34:31;4.20;;;2.97;;
80322;SDS011;69636;52.372;13.610;2023-07-16T08:36:58;4.43;;;2.70;;
80322;SDS011;69636;52.372;13.610;2023-07-16T08:39:26;4.63;;;3.20;;
80322;SDS011;69636;52.372;13.610;2023-07-16T08:41:56;5.25;;;3.63;;
80322;SDS011;69636;52.372;13.610;2023-07-16T08:44:24;4.43;;;2.83;;
80322;SDS011;69636;52.372;13.610;2023-07-16T08:46:53;4.93;;;3.05;;
80322;SDS011;69636;52.372;13.610;2023-07-16T08:49:21;4.63;;;2.90;;
80322;SDS011;69636;52.372;13.610;2023-07-16T08:51:49;5.25;;;2.65;;
80322;SDS011;69636;52.372;13.610;2023-07-16T08:54:17;4.47;;;2.15;;
80322;SDS011;69636;52.372;13.610;2023-07-16T08:56:44;3.60;;;2.30;;
80322;SDS011;69636;52.372;13.610;2023-07-16T08:59:16;3.58;;;2.30;;
80322;SDS011;69636;52.372;13.610;2023-07-16T09:01:46;4.28;;;2.45;;
80322;SDS011;69636;52.372;13.610;2023-07-16T09:04:14;4.60;;;2.38;;
80322;SDS011;69636;52.372;13.610;2023-07-16T09:06:43;4.20;;;2.30;;
80322;SDS011;69636;52.372;13.610;2023-07-16T09:09:12;4.28;;;2.65;;
80322;SDS011;69636;52.372;13.610;2023-07-16T09:11:48;3.72;;;2.20;;
80322;SDS011;69636;52.372;13.610;2023-07-16T09:14:18;5.63;;;2.22;;
80322;SDS011;69636;52.372;13.610;2023-07-16T09:16:49;3.85;;;2.25;;
80322;SDS011;69636;52.372;13.610;2023-07-16T09:19:18;3.63;;;2.20;;
80322;SDS011;69636;52.372;13.610;2023-07-16T09:21:46;4.72;;;3.50;;
80322;SDS011;69636;52.372;13.610;2023-07-16T09:24:16;4.22;;;2.40;;
80322;SDS011;69636;52.372;13.610;2023-07-16T09:26:47;4.90;;;2.05;;
80322;SDS011;69636;52.372;13.610;2023-07-16T09:29:15;3.83;;;2.03;;
80322;SDS011;69636;52.372;13.610;2023-07-16T09:31:55;3.63;;;1.80;;
80322;SDS011;69636;52.372;13.610;2023-07-16T09:34:23;3.28;;;2.10;;
80322;SDS011;69636;52.372;13.610;2023-07-16T09:36:54;3.50;;;2.13;;
80322;SDS011;69636;52.372;13.610;2023-07-16T09:39:22;4.13;;;2.08;;
80322;SDS011;69636;52.372;13.610;2023-07-16T09:41:51;3.42;;;1.60;;
80322;SDS011;69636;52.372;13.610;2023-07-16T09:44:20;6.55;;;2.15;;
80322;SDS011;69636;52.372;13.610;2023-07-16T09:46:48;5.50;;;2.10;;
80322;SDS011;69636;52.372;13.610;2023-07-16T09:49:26;3.67;;;1.95;;
80322;SDS011;69636;52.372;13.610;2023-07-16T09:51:56;3.78;;;2.08;;
80322;SDS011;69636;52.372;13.610;2023-07-16T09:54:25;3.58;;;1.77;;
80322;SDS011;69636;52.372;13.610;2023-07-16T09:56:54;3.40;;;2.05;;
80322;SDS011;69636;52.372;13.610;2023-07-16T09:59:24;4.00;;;2.33;;
80322;SDS011;69636;52.372;13.610;2023-07-16T10:01:55;3.42;;;2.22;;
80322;SDS011;69636;52.372;13.610;2023-07-16T10:04:25;3.58;;;2.00;;
80322;SDS011;69636;52.372;13.610;2023-07-16T10:06:53;4.93;;;2.38;;
80322;SDS011;69636;52.372;13.610;2023-07-16T10:09:32;4.20;;;2.30;;
80322;SDS011;69636;52.372;13.610;2023-07-16T10:12:08;5.80;;;2.60;;
80322;SDS011;69636;52.372;13.610;2023-07-16T10:14:44;6.43;;;3.00;;
80322;SDS011;69636;52.372;13.610;2023-07-16T10:17:13;3.45;;;2.60;;
80322;SDS011;69636;52.372;13.610;2023-07-16T10:19:49;4.40;;;2.45;;
80322;SDS011;69636;52.372;13.610;2023-07-16T10:22:31;4.15;;;2.53;;
80322;SDS011;69636;52.372;13.610;2023-07-16T10:25:00;4.72;;;3.00;;
80322;SDS011;69636;52.372;13.610;2023-07-16T10:27:31;4.72;;;2.85;;
80322;SDS011;69636;52.372;13.610;2023-07-16T10:30:00;4.10;;;2.50;;
80322;SDS011;69636;52.372;13.610;2023-07-16T10:32:28;4.43;;;2.70;;
80322;SDS011;69636;52.372;13.610;2023-07-16T10:34:58;5.18;;;2.90;;
80322;SDS011;69636;52.372;13.610;2023-07-16T10:37:27;4.72;;;2.47;;
80322;SDS011;69636;52.372;13.610;2023-07-16T10:39:55;4.03;;;2.95;;
80322;SDS011;69636;52.372;13.610;2023-07-16T10:42:24;6.43;;;2.50;;
80322;SDS011;69636;52.372;13.610;2023-07-16T10:44:53;5.43;;;2.70;;
80322;SDS011;69636;52.372;13.610;2023-07-16T10:47:22;4.93;;;2.03;;
80322;SDS011;69636;52.372;13.610;2023-07-16T10:49:51;3.88;;;2.72;;
80322;SDS011;69636;52.372;13.610;2023-07-16T10:52:20;4.57;;;2.55;;
80322;SDS011;69636;52.372;13.610;2023-07-16T10:54:50;4.63;;;2.50;;
80322;SDS011;69636;52.372;13.610;2023-07-16T10:57:20;4.32;;;2.47;;
80322;SDS011;69636;52.372;13.610;2023-07-16T10:59:48;4.88;;;1.92;;
80322;SDS011;69636;52.372;13.610;2023-07-16T11:02:16;4.43;;;1.95;;
80322;SDS011;69636;52.372;13.610;2023-07-16T11:04:45;5.05;;;2.50;;
80322;SDS011;69636;52.372;13.610;2023-07-16T11:07:14;4.20;;;2.20;;
80322;SDS011;69636;52.372;13.610;2023-07-16T11:09:44;4.93;;;2.42;;
80322;SDS011;69636;52.372;13.610;2023-07-16T11:12:16;4.50;;;2.35;;
80322;SDS011;69636;52.372;13.610;2023-07-16T11:14:44;4.18;;;2.50;;
80322;SDS011;69636;52.372;13.610;2023-07-16T11:17:15;4.72;;;2.40;;
80322;SDS011;69636;52.372;13.610;2023-07-16T11:19:44;4.90;;;2.55;;
80322;SDS011;69636;52.372;13.610;2023-07-16T11:22:13;3.40;;;2.83;;
80322;SDS011;69636;52.372;13.610;2023-07-16T11:24:45;5.45;;;2.60;;
80322;SDS011;69636;52.372;13.610;2023-07-16T11:27:14;4.75;;;2.45;;
80322;SDS011;69636;52.372;13.610;2023-07-16T11:29:46;3.30;;;2.15;;
80322;SDS011;69636;52.372;13.610;2023-07-16T11:32:25;4.85;;;2.20;;
80322;SDS011;69636;52.372;13.610;2023-07-16T11:34:55;4.95;;;2.25;;
80322;SDS011;69636;52.372;13.610;2023-07-16T11:37:24;3.92;;;2.00;;
80322;SDS011;69636;52.372;13.610;2023-07-16T11:39:56;3.92;;;2.22;;
80322;SDS011;69636;52.372;13.610;2023-07-16T11:42:27;5.13;;;2.38;;
80322;SDS011;69636;52.372;13.610;2023-07-16T11:44:56;5.35;;;2.30;;
80322;SDS011;69636;52.372;13.610;2023-07-16T11:47:24;4.38;;;2.25;;
80322;SDS011;69636;52.372;13.610;2023-07-16T11:49:52;3.70;;;2.25;;
80322;SDS011;69636;52.372;13.610;2023-07-16T11:52:20;5.18;;;2.80;;
80322;SDS011;69636;52.372;13.610;2023-07-16T11:54:48;4.72;;;2.75;;
80322;SDS011;69636;52.372;13.610;2023-07-16T11:57:17;4.95;;;2.42;;
80322;SDS011;69636;52.372;13.610;2023-07-16T11:59:46;4.72;;;2.20;;
80322;SDS011;69636;52.372;13.610;2023-07-16T12:02:13;3.80;;;1.90;;
80322;SDS011;69636;52.372;13.610;2023-07-16T12:04:43;4.20;;;2.00;;
80322;SDS011;69636;52.372;13.610;2023-07-16T12:07:10;5.10;;;1.92;;
80322;SDS011;69636;52.372;13.610;2023-07-16T12:09:38;4.30;;;2.05;;
80322;SDS011;69636;52.372;13.610;2023-07-16T12:12:06;3.38;;;1.75;;
80322;SDS011;69636;52.372;13.610;2023-07-16T12:14:36;4.70;;;2.13;;
80322;SDS011;69636;52.372;13.610;2023-07-16T12:17:05;3.72;;;1.90;;
80322;SDS011;69636;52.372;13.610;2023-07-16T12:19:34;3.83;;;1.63;;
80322;SDS011;69636;52.372;13.610;2023-07-16T12:22:02;3.88;;;1.50;;
80322;SDS011;69636;52.372;13.610;2023-07-16T12:24:30;4.10;;;1.63;;
80322;SDS011;69636;52.372;13.610;2023-07-16T12:26:57;3.30;;;1.50;;
80322;SDS011;69636;52.372;13.610;2023-07-16T12:29:25;4.13;;;2.00;;
80322;SDS011;69636;52.372;13.610;2023-07-16T12:31:54;6.00;;;1.73;;
80322;SDS011;69636;52.372;13.610;2023-07-16T12:34:22;11.75;;;10.23;;
80322;SDS011;69636;52.372;13.610;2023-07-16T12:36:49;4.50;;;2.00;;
80322;SDS011;69636;52.372;13.610;2023-07-16T12:39:17;5.05;;;1.98;;
80322;SDS011;69636;52.372;13.610;2023-07-16T12:41:44;4.25;;;1.70;;
80322;SDS011;69636;52.372;13.610;2023-07-16T12:44:12;3.22;;;1.92;;
80322;SDS011;69636;52.372;13.610;2023-07-16T12:46:40;4.35;;;1.63;;
80322;SDS011;69636;52.372;13.610;2023-07-16T12:49:09;4.32;;;1.92;;
80322;SDS011;69636;52.372;13.610;2023-07-16T12:51:36;4.78;;;1.60;;
80322;SDS011;69636;52.372;13.610;2023-07-16T12:54:04;3.95;;;1.60;;
80322;SDS011;69636;52.372;13.610;2023-07-16T12:56:32;7.15;;;1.70;;
80322;SDS011;69636;52.372;13.610;2023-07-16T12:58:59;4.97;;;1.90;;
80322;SDS011;69636;52.372;13.610;2023-07-16T13:01:27;5.38;;;1.65;;
80322;SDS011;69636;52.372;13.610;2023-07-16T13:03:54;4.90;;;1.60;;
80322;SDS011;69636;52.372;13.610;2023-07-16T13:06:24;5.18;;;1.70;;
80322;SDS011;69636;52.372;13.610;2023-07-16T13:08:52;3.10;;;1.48;;
80322;SDS011;69636;52.372;13.610;2023-07-16T13:11:20;4.18;;;1.80;;
80322;SDS011;69636;52.372;13.610;2023-07-16T13:13:47;4.07;;;1.77;;
80322;SDS011;69636;52.372;13.610;2023-07-16T13:16:15;4.13;;;1.48;;
80322;SDS011;69636;52.372;13.610;2023-07-16T13:18:43;4.88;;;1.73;;
80322;SDS011;69636;52.372;13.610;2023-07-16T13:21:11;4.38;;;1.92;;
80322;SDS011;69636;52.372;13.610;2023-07-16T13:23:40;4.60;;;1.85;;
80322;SDS011;69636;52.372;13.610;2023-07-16T13:26:08;3.47;;;1.70;;
80322;SDS011;69636;52.372;13.610;2023-07-16T13:31:03;4.45;;;1.60;;
80322;SDS011;69636;52.372;13.610;2023-07-16T13:33:32;3.28;;;1.52;;
80322;SDS011;69636;52.372;13.610;2023-07-16T13:36:00;4.38;;;1.80;;
80322;SDS011;69636;52.372;13.610;2023-07-16T13:38:27;3.50;;;1.58;;
80322;SDS011;69636;52.372;13.610;2023-07-16T13:40:58;3.40;;;2.00;;
80322;SDS011;69636;52.372;13.610;2023-07-16T13:43:25;3.30;;;1.83;;
80322;SDS011;69636;52.372;13.610;2023-07-16T13:45:53;5.43;;;3.20;;
80322;SDS011;69636;52.372;13.610;2023-07-16T13:48:21;5.53;;;2.03;;
80322;SDS011;69636;52.372;13.610;2023-07-16T13:50:49;3.45;;;1.70;;
80322;SDS011;69636;52.372;13.610;2023-07-16T13:53:16;3.50;;;1.65;;
80322;SDS011;69636;52.372;13.610;2023-07-16T13:55:44;7.72;;;6.60;;
80322;SDS011;69636;52.372;13.610;2023-07-16T13:58:13;6.22;;;3.28;;
80322;SDS011;69636;52.372;13.610;2023-07-16T14:00:42;4.25;;;1.77;;
80322;SDS011;69636;52.372;13.610;2023-07-16T14:03:09;4.38;;;1.65;;
80322;SDS011;69636;52.372;13.610;2023-07-16T14:05:37;5.18;;;1.90;;
80322;SDS011;69636;52.372;13.610;2023-07-16T14:08:05;4.30;;;1.50;;
80322;SDS011;69636;52.372;13.610;2023-07-16T14:10:32;3.88;;;1.60;;
80322;SDS011;69636;52.372;13.610;2023-07-16T14:13:01;5.57;;;1.85;;
80322;SDS011;69636;52.372;13.610;2023-07-16T14:15:29;4.78;;;1.88;;
80322;SDS011;69636;52.372;13.610;2023-07-16T14:17:57;3.58;;;1.40;;
80322;SDS011;69636;52.372;13.610;2023-07-16T14:20:25;3.40;;;1.45;;
80322;SDS011;69636;52.372;13.610;2023-07-16T14:22:52;3.22;;;1.70;;
80322;SDS011;69636;52.372;13.610;2023-07-16T14:25:20;3.20;;;1.45;;
80322;SDS011;69636;52.372;13.610;2023-07-16T14:27:47;4.13;;;1.63;;
80322;SDS011;69636;52.372;13.610;2023-07-16T14:30:15;6.97;;;2.47;;
80322;SDS011;69636;52.372;13.610;2023-07-16T14:32:44;5.05;;;2.08;;
80322;SDS011;69636;52.372;13.610;2023-07-16T14:35:12;3.22;;;1.50;;
80322;SDS011;69636;52.372;13.610;2023-07-16T14:37:47;4.68;;;1.60;;
80322;SDS011;69636;52.372;13.610;2023-07-16T14:40:15;4.40;;;1.40;;
80322;SDS011;69636;52.372;13.610;2023-07-16T14:42:42;4.00;;;1.85;;
80322;SDS011;69636;52.372;13.610;2023-07-16T14:45:10;4.85;;;1.70;;
80322;SDS011;69636;52.372;13.610;2023-07-16T14:47:38;4.97;;;2.05;;
80322;SDS011;69636;52.372;13.610;2023-07-16T14:50:09;4.30;;;1.70;;
80322;SDS011;69636;52.372;13.610;2023-07-16T14:52:37;3.33;;;1.52;;
80322;SDS011;69636;52.372;13.610;2023-07-16T14:55:05;6.55;;;2.45;;
80322;SDS011;69636;52.372;13.610;2023-07-16T14:57:33;3.53;;;1.52;;
80322;SDS011;69636;52.372;13.610;2023-07-16T15:00:01;3.80;;;1.90;;
80322;SDS011;69636;52.372;13.610;2023-07-16T15:02:29;3.80;;;1.20;;
80322;SDS011;69636;52.372;13.610;2023-07-16T15:04:57;4.93;;;1.30;;
80322;SDS011;69636;52.372;13.610;2023-07-16T15:07:26;4.65;;;1.60;;
80322;SDS011;69636;52.372;13.610;2023-07-16T15:09:54;3.75;;;1.27;;
80322;SDS011;69636;52.372;13.610;2023-07-16T15:12:21;4.25;;;1.42;;
80322;SDS011;69636;52.372;13.610;2023-07-16T15:14:49;4.15;;;1.80;;
80322;SDS011;69636;52.372;13.610;2023-07-16T15:17:17;4.05;;;1.98;;
80322;SDS011;69636;52.372;13.610;2023-07-16T15:19:45;3.53;;;1.60;;
80322;SDS011;69636;52.372;13.610;2023-07-16T15:22:12;3.55;;;1.67;;
80322;SDS011;69636;52.372;13.610;2023-07-16T15:24:41;5.47;;;1.60;;
80322;SDS011;69636;52.372;13.610;2023-07-16T15:27:08;3.10;;;1.50;;